Time;durP1;ratioP1;P1;durP2;ratioP2;P2;SDS_P1;SDS_P2;PMS_P1;PMS_P2;Temp;Humidity;BMP_temperature;BMP_pressure;BME280_temperature;BME280_humidity;BME280_pressure;Samples;Min_cycle;Max_cycle;Signal;HPM_P1;HPM_P2
2023/12/09 00:01:26;;;;;;;;;;;15.50;52.00;;;;;;5066462;28;43074;-83
2023/12/09 00:03:51;;;;;;;;;;;15.50;51.30;;;;;;5066601;28;42896;-82
2023/12/09 00:06:18;;;;;;;;;;;15.50;51.30;;;;;;5048117;28;43039;-93
2023/12/09 00:08:43;;;;;;;;;;;15.40;51.20;;;;;;5067098;28;43259;-82
2023/12/09 00:11:09;;;;;;;;;;;15.50;51.30;;;;;;5067215;28;42912;-83
2023/12/09 00:13:34;;;;;;;;;;;15.50;51.30;;;;;;5066724;28;43750;-91
2023/12/09 00:16:00;;;;;;;;;;;15.50;51.20;;;;;;5048414;28;42815;-82
2023/12/09 00:18:25;;;;;;;;;;;15.50;51.30;;;;;;5066763;28;43668;-82
2023/12/09 00:20:51;;;;;;;;;;;15.50;51.30;;;;;;5066513;28;42896;-89
2023/12/09 00:23:16;;;;;;;;;;;15.50;51.30;;;;;;5066476;28;42957;-88
2023/12/09 00:25:42;;;;;;;;;;;14.90;51.00;;;;;;5066397;28;42880;-82
2023/12/09 00:28:07;;;;;;;;;;;15.50;51.90;;;;;;5066268;28;43586;-82
2023/12/09 00:30:33;;;;;;;;;;;15.50;52.00;;;;;;5066625;28;42891;-85
2023/12/09 00:32:59;;;;;;;;;;;15.40;51.20;;;;;;5047934;28;43535;-93
2023/12/09 00:35:24;;;;;;;;;;;15.40;51.20;;;;;;5066037;28;42989;-90
2023/12/09 00:37:50;;;;;;;;;;;15.50;52.10;;;;;;5065530;28;43477;-82
2023/12/09 00:40:16;;;;;;;;;;;15.50;51.30;;;;;;5066085;28;42978;-83
2023/12/09 00:42:42;;;;;;;;;;;15.60;51.90;;;;;;5065655;28;42939;-92
2023/12/09 00:45:08;;;;;;;;;;;15.50;51.30;;;;;;5066715;28;42826;-82
2023/12/09 00:47:33;;;;;;;;;;;15.50;51.30;;;;;;5065895;28;42831;-84
2023/12/09 00:49:59;;;;;;;;;;;15.60;51.30;;;;;;5066388;28;42951;-83
2023/12/09 00:52:25;;;;;;;;;;;15.50;51.20;;;;;;5047769;28;44483;-82
2023/12/09 00:54:50;;;;;;;;;;;15.50;51.80;;;;;;5066196;28;42924;-88
2023/12/09 00:57:16;;;;;;;;;;;15.50;51.30;;;;;;5065689;28;42822;-92
2023/12/09 00:59:41;;;;;;;;;;;15.50;51.30;;;;;;5066399;28;42856;-83
2023/12/09 01:02:07;;;;;;;;;;;15.50;51.30;;;;;;5065507;28;42882;-82
2023/12/09 01:04:32;;;;;;;;;;;15.40;51.20;;;;;;5066209;28;42997;-82
2023/12/09 01:06:58;;;;;;;;;;;15.50;51.20;;;;;;5065743;28;43257;-89
2023/12/09 01:09:24;;;;;;;;;;;15.40;52.00;;;;;;5064459;28;42946;-82
2023/12/09 01:11:49;;;;;;;;;;;15.50;51.20;;;;;;5064996;28;43792;-83
2023/12/09 01:14:15;;;;;;;;;;;15.40;51.20;;;;;;5065665;28;42875;-88
2023/12/09 01:16:40;;;;;;;;;;;15.50;51.30;;;;;;5065910;28;42993;-85
2023/12/09 01:19:06;;;;;;;;;;;15.40;51.20;;;;;;5047409;28;42975;-85
2023/12/09 01:21:31;;;;;;;;;;;15.60;51.90;;;;;;5066184;28;43508;-86
2023/12/09 01:23:57;;;;;;;;;;;15.50;51.80;;;;;;5065755;28;42964;-88
2023/12/09 01:26:22;;;;;;;;;;;15.50;51.30;;;;;;5047061;28;43653;-82
2023/12/09 01:28:48;;;;;;;;;;;15.50;51.30;;;;;;5064846;28;43002;-88
2023/12/09 01:31:13;;;;;;;;;;;15.40;51.20;;;;;;5065177;28;43006;-89
2023/12/09 01:33:39;;;;;;;;;;;15.40;51.20;;;;;;5065339;28;42914;-89
2023/12/09 01:36:04;;;;;;;;;;;15.50;52.10;;;;;;5064970;28;42848;-82
2023/12/09 01:38:30;;;;;;;;;;;15.40;51.20;;;;;;5064986;28;42931;-86
2023/12/09 01:40:55;;;;;;;;;;;15.40;51.20;;;;;;5065404;28;42852;-82
2023/12/09 01:43:22;;;;;;;;;;;15.40;51.20;;;;;;5065295;28;43078;-90
2023/12/09 01:45:49;;;;;;;;;;;15.50;51.30;;;;;;5046428;28;44581;-90
2023/12/09 01:48:15;;;;;;;;;;;15.40;51.20;;;;;;5047901;28;42993;-89
2023/12/09 01:50:41;;;;;;;;;;;15.40;51.70;;;;;;5069688;28;42837;-92
2023/12/09 01:53:07;;;;;;;;;;;15.50;51.30;;;;;;5067119;28;42884;-92
2023/12/09 01:55:32;;;;;;;;;;;17.10;52.10;;;;;;5064923;28;43532;-82
2023/12/09 01:57:58;;;;;;;;;;;15.40;51.80;;;;;;5065143;28;43014;-92
2023/12/09 02:00:24;;;;;;;;;;;15.50;51.30;;;;;;5064951;28;42895;-93
2023/12/09 02:02:50;;;;;;;;;;;15.40;51.20;;;;;;5064825;28;42793;-92
2023/12/09 02:05:15;;;;;;;;;;;15.40;51.30;;;;;;5064763;28;42734;-86
2023/12/09 02:07:41;;;;;;;;;;;15.50;51.30;;;;;;5065488;28;43131;-82
2023/12/09 02:10:07;;;;;;;;;;;15.40;51.20;;;;;;5065111;28;43438;-83
2023/12/09 02:12:36;;;;;;;;;;;15.50;51.30;;;;;;5065408;28;42951;-84
2023/12/09 02:15:22;;;;;;;;;;;15.40;51.60;;;;;;5065012;28;43056;-82
2023/12/09 02:17:56;;;;;;;;;;;15.40;51.30;;;;;;5065410;28;42944;-91
2023/12/09 02:20:22;;;;;;;;;;;15.40;51.20;;;;;;5066151;28;42994;-91
2023/12/09 02:22:47;;;;;;;;;;;15.50;52.10;;;;;;5068247;28;42968;-82
2023/12/09 02:25:13;;;;;;;;;;;15.40;51.30;;;;;;5067990;28;43017;-93
2023/12/09 02:27:52;;;;;;;;;;;15.50;52.00;;;;;;5068071;28;42978;-84
2023/12/09 02:30:20;;;;;;;;;;;15.40;51.30;;;;;;5066173;28;43959;-91
2023/12/09 02:32:47;;;;;;;;;;;15.40;51.70;;;;;;5068393;28;42942;-94
2023/12/09 02:35:14;;;;;;;;;;;15.50;51.80;;;;;;5067777;28;42960;-92
2023/12/09 02:37:40;;;;;;;;;;;15.40;51.30;;;;;;5067966;28;42930;-84
2023/12/09 02:40:09;;;;;;;;;;;15.40;51.20;;;;;;5067350;28;42919;-90
2023/12/09 02:42:35;;;;;;;;;;;15.40;51.80;;;;;;5051712;28;42939;-89
2023/12/09 02:45:01;;;;;;;;;;;15.40;51.70;;;;;;5047197;28;42986;-83
2023/12/09 02:47:26;;;;;;;;;;;15.40;51.30;;;;;;5046826;28;42935;-82
2023/12/09 02:49:54;;;;;;;;;;;15.40;51.30;;;;;;5047383;28;43228;-88
2023/12/09 02:52:19;;;;;;;;;;;15.40;51.20;;;;;;5047012;28;42825;-85
2023/12/09 02:54:45;;;;;;;;;;;15.40;52.00;;;;;;5062683;28;43842;-88
2023/12/09 02:57:10;;;;;;;;;;;15.40;51.90;;;;;;5046247;28;42888;-91
2023/12/09 02:59:36;;;;;;;;;;;15.40;52.00;;;;;;5046711;28;42924;-93
2023/12/09 03:02:01;;;;;;;;;;;15.40;51.30;;;;;;5045306;28;42999;-85
2023/12/09 03:04:27;;;;;;;;;;;15.50;51.30;;;;;;5046582;28;43598;-82
2023/12/09 03:06:52;;;;;;;;;;;15.70;51.40;;;;;;5046235;28;42802;-82
2023/12/09 03:09:18;;;;;;;;;;;15.40;52.00;;;;;;5046312;28;42825;-82
2023/12/09 03:11:43;;;;;;;;;;;15.40;51.90;;;;;;5046776;28;43106;-92
2023/12/09 03:14:09;;;;;;;;;;;15.40;51.20;;;;;;5028645;28;44602;-92
2023/12/09 03:16:40;;;;;;;;;;;15.40;51.30;;;;;;5046669;28;42884;-83
2023/12/09 03:19:06;;;;;;;;;;;15.40;51.60;;;;;;5028122;28;43659;-81
2023/12/09 03:21:31;;;;;;;;;;;15.40;51.30;;;;;;5046710;28;43039;-82
2023/12/09 03:23:57;;;;;;;;;;;15.40;51.30;;;;;;5046452;28;43692;-85
2023/12/09 03:26:24;;;;;;;;;;;15.40;51.30;;;;;;5045785;28;42807;-88
2023/12/09 03:28:51;;;;;;;;;;;15.40;51.80;;;;;;5046088;28;42924;-81
2023/12/09 03:31:17;;;;;;;;;;;15.40;51.80;;;;;;5046431;28;43244;-84
2023/12/09 03:33:42;;;;;;;;;;;15.40;51.30;;;;;;5028148;28;43640;-85
2023/12/09 03:36:09;;;;;;;;;;;15.30;51.20;;;;;;5046132;28;42998;-90
2023/12/09 03:38:34;;;;;;;;;;;15.40;51.80;;;;;;5045718;28;43258;-83
2023/12/09 03:41:02;;;;;;;;;;;15.60;51.40;;;;;;5046165;28;42986;-82
2023/12/09 03:43:28;;;;;;;;;;;15.40;51.30;;;;;;5045938;28;42904;-88
2023/12/09 03:45:53;;;;;;;;;;;15.40;51.30;;;;;;5061982;28;42958;-85
2023/12/09 03:48:19;;;;;;;;;;;15.40;51.30;;;;;;5045484;28;43366;-89
2023/12/09 03:50:44;;;;;;;;;;;15.40;51.30;;;;;;5046532;28;42948;-87
2023/12/09 03:53:09;;;;;;;;;;;15.40;52.00;;;;;;5046558;28;42967;-90
2023/12/09 03:55:35;;;;;;;;;;;15.40;51.30;;;;;;5044690;28;43098;-82
2023/12/09 03:58:00;;;;;;;;;;;15.40;51.30;;;;;;5033233;28;44828;-82
2023/12/09 04:00:26;;;;;;;;;;;15.40;51.90;;;;;;5052412;28;42967;-91
2023/12/09 04:02:51;;;;;;;;;;;15.40;51.30;;;;;;5047127;28;42922;-82
2023/12/09 04:05:17;;;;;;;;;;;15.30;51.20;;;;;;5045590;28;42910;-87
2023/12/09 04:07:43;;;;;;;;;;;15.40;51.30;;;;;;5045502;28;43051;-92
2023/12/09 04:10:09;;;;;;;;;;;15.40;51.30;;;;;;5045553;28;42987;-83
2023/12/09 04:12:34;;;;;;;;;;;15.40;51.30;;;;;;5045502;28;43827;-82
2023/12/09 04:15:01;;;;;;;;;;;15.40;51.30;;;;;;5045826;28;42762;-93
2023/12/09 04:17:26;;;;;;;;;;;15.40;51.30;;;;;;5044853;28;43518;-81
2023/12/09 04:19:52;;;;;;;;;;;15.30;51.90;;;;;;5027472;28;43008;-83
2023/12/09 04:22:18;;;;;;;;;;;15.40;51.20;;;;;;5045975;28;42787;-91
2023/12/09 04:24:43;;;;;;;;;;;15.40;52.00;;;;;;5045394;28;43027;-92
2023/12/09 04:27:09;;;;;;;;;;;15.40;51.30;;;;;;5044707;28;42885;-82
2023/12/09 04:29:34;;;;;;;;;;;15.30;51.20;;;;;;5045652;28;42971;-93
2023/12/09 04:32:00;;;;;;;;;;;15.30;51.20;;;;;;5045875;28;43142;-93
2023/12/09 04:34:26;;;;;;;;;;;15.30;51.30;;;;;;5045235;28;43062;-81
2023/12/09 04:36:51;;;;;;;;;;;15.40;52.00;;;;;;5045460;28;42993;-93
2023/12/09 04:39:16;;;;;;;;;;;15.40;51.30;;;;;;5026548;28;43076;-84
2023/12/09 04:41:42;;;;;;;;;;;15.40;51.30;;;;;;5046084;28;42905;-83
2023/12/09 04:44:08;;;;;;;;;;;15.30;51.30;;;;;;5044796;28;42872;-92
2023/12/09 04:46:34;;;;;;;;;;;15.40;51.30;;;;;;5046262;28;42837;-94
2023/12/09 04:48:59;;;;;;;;;;;15.40;51.30;;;;;;5044740;28;43071;-92
2023/12/09 04:51:25;;;;;;;;;;;15.40;52.20;;;;;;5045134;28;43131;-93
2023/12/09 04:53:50;;;;;;;;;;;15.40;51.30;;;;;;5045065;28;42920;-84
2023/12/09 04:56:16;;;;;;;;;;;15.30;51.20;;;;;;5045691;28;43575;-82
2023/12/09 04:58:41;;;;;;;;;;;15.40;51.30;;;;;;5044836;28;43188;-92
2023/12/09 05:01:08;;;;;;;;;;;15.40;51.30;;;;;;5045435;28;43753;-86
2023/12/09 05:03:34;;;;;;;;;;;15.30;51.30;;;;;;5045106;28;42904;-89
2023/12/09 05:06:00;;;;;;;;;;;15.40;51.30;;;;;;5044189;28;43041;-87
2023/12/09 05:08:26;;;;;;;;;;;15.40;51.30;;;;;;5059908;28;42855;-82
2023/12/09 05:10:52;;;;;;;;;;;15.40;51.30;;;;;;5044910;28;42861;-81
2023/12/09 05:13:17;;;;;;;;;;;15.40;51.30;;;;;;5045320;28;42973;-89
2023/12/09 05:15:44;;;;;;;;;;;15.30;51.30;;;;;;5044844;28;42940;-86
2023/12/09 05:18:09;;;;;;;;;;;15.40;51.30;;;;;;5044820;28;42885;-87
2023/12/09 05:20:35;;;;;;;;;;;15.30;51.30;;;;;;5044773;28;42758;-88
2023/12/09 05:23:00;;;;;;;;;;;15.30;51.30;;;;;;5044094;28;42827;-93
2023/12/09 05:25:26;;;;;;;;;;;15.40;51.30;;;;;;5043948;28;42810;-81
2023/12/09 05:27:51;;;;;;;;;;;15.40;51.30;;;;;;5045338;28;42754;-87
2023/12/09 05:30:17;;;;;;;;;;;15.30;51.30;;;;;;5044521;28;42873;-83
2023/12/09 05:32:42;;;;;;;;;;;15.30;51.30;;;;;;5045214;28;42966;-85
2023/12/09 05:35:08;;;;;;;;;;;15.30;52.00;;;;;;5044556;28;43605;-84
2023/12/09 05:37:34;;;;;;;;;;;15.30;51.20;;;;;;5044216;28;42934;-84
2023/12/09 05:39:59;;;;;;;;;;;15.40;51.30;;;;;;5059713;28;43472;-93
2023/12/09 05:42:25;;;;;;;;;;;15.30;51.90;;;;;;5044432;28;43046;-86
2023/12/09 05:44:51;;;;;;;;;;;15.30;51.30;;;;;;5044066;28;42892;-89
2023/12/09 05:47:16;;;;;;;;;;;15.30;51.30;;;;;;5026527;28;42958;-94
2023/12/09 05:49:42;;;;;;;;;;;15.40;51.30;;;;;;5044053;28;43574;-90
2023/12/09 05:52:07;;;;;;;;;;;15.30;51.30;;;;;;5044802;28;42983;-93
2023/12/09 05:54:34;;;;;;;;;;;15.30;51.20;;;;;;5043938;28;43671;-83
2023/12/09 05:56:59;;;;;;;;;;;15.30;51.40;;;;;;5046401;28;43042;-88
2023/12/09 05:59:25;;;;;;;;;;;15.30;51.30;;;;;;5047523;28;43604;-88
2023/12/09 06:01:50;;;;;;;;;;;15.30;52.00;;;;;;5046183;28;42875;-92
2023/12/09 06:04:16;;;;;;;;;;;15.40;51.30;;;;;;5047210;28;42943;-87
2023/12/09 06:06:41;;;;;;;;;;;15.30;51.30;;;;;;5048636;28;43014;-85
2023/12/09 06:09:07;;;;;;;;;;;15.30;51.20;;;;;;5047752;28;42991;-87
2023/12/09 06:11:32;;;;;;;;;;;15.30;51.20;;;;;;5053129;28;42901;-92
2023/12/09 06:13:58;;;;;;;;;;;15.30;51.30;;;;;;5048187;28;43025;-83
2023/12/09 06:16:23;;;;;;;;;;;15.30;51.30;;;;;;5048690;28;43050;-91
2023/12/09 06:18:49;;;;;;;;;;;15.30;51.30;;;;;;5028668;28;44451;-82
2023/12/09 06:21:33;;;;;;;;;;;15.30;51.30;;;;;;5047722;28;42923;-83
2023/12/09 06:23:58;;;;;;;;;;;15.20;51.60;;;;;;5047110;28;42915;-91
2023/12/09 06:26:24;;;;;;;;;;;15.30;51.20;;;;;;5047666;28;42912;-83
2023/12/09 06:28:49;;;;;;;;;;;15.30;51.30;;;;;;5047666;28;43540;-92
2023/12/09 06:31:15;;;;;;;;;;;15.30;51.30;;;;;;5046268;28;43038;-86
2023/12/09 06:33:40;;;;;;;;;;;15.30;51.30;;;;;;5046430;28;43046;-83
2023/12/09 06:36:06;;;;;;;;;;;15.40;52.10;;;;;;5047111;28;43011;-81
2023/12/09 06:38:34;;;;;;;;;;;15.30;51.30;;;;;;5046651;28;42999;-89
2023/12/09 06:41:00;;;;;;;;;;;15.30;51.30;;;;;;5047770;28;42939;-82
2023/12/09 06:43:25;;;;;;;;;;;15.30;51.30;;;;;;5046968;28;42922;-82
2023/12/09 06:45:50;;;;;;;;;;;15.30;51.30;;;;;;5047214;28;42928;-87
2023/12/09 06:48:16;;;;;;;;;;;15.30;52.10;;;;;;5047499;28;42755;-81
2023/12/09 06:50:42;;;;;;;;;;;15.40;52.00;;;;;;5047254;28;43062;-86
2023/12/09 06:53:09;;;;;;;;;;;15.30;51.30;;;;;;5046895;28;42900;-83
2023/12/09 06:55:35;;;;;;;;;;;15.30;51.30;;;;;;5061706;28;43332;-93
2023/12/09 06:58:02;;;;;;;;;;;15.30;51.30;;;;;;5062166;28;44241;-83
2023/12/09 07:00:28;;;;;;;;;;;15.30;51.80;;;;;;5046456;28;42986;-88
2023/12/09 07:02:54;;;;;;;;;;;15.30;51.30;;;;;;5047174;28;42922;-90
2023/12/09 07:05:20;;;;;;;;;;;15.30;51.30;;;;;;5047272;28;42933;-91
2023/12/09 07:07:48;;;;;;;;;;;15.30;51.30;;;;;;5045745;28;42937;-82
2023/12/09 07:10:14;;;;;;;;;;;15.30;51.30;;;;;;5047060;28;42971;-90
2023/12/09 07:12:39;;;;;;;;;;;15.30;51.30;;;;;;5047117;28;44172;-93
2023/12/09 07:15:05;;;;;;;;;;;15.30;51.90;;;;;;5046674;28;42944;-88
2023/12/09 07:17:31;;;;;;;;;;;15.30;51.80;;;;;;5047104;28;42853;-81
2023/12/09 07:19:59;;;;;;;;;;;15.20;51.20;;;;;;5046613;28;42920;-92
2023/12/09 07:22:25;;;;;;;;;;;15.30;51.30;;;;;;5046261;28;42739;-90
2023/12/09 07:24:50;;;;;;;;;;;15.30;51.90;;;;;;5046946;28;42959;-88
2023/12/09 07:27:16;;;;;;;;;;;15.30;51.30;;;;;;5045260;28;43017;-82
2023/12/09 07:29:41;;;;;;;;;;;15.30;52.10;;;;;;5046649;28;43025;-87
2023/12/09 07:32:07;;;;;;;;;;;15.20;51.20;;;;;;5047025;28;43513;-84
2023/12/09 07:34:32;;;;;;;;;;;15.30;51.30;;;;;;5046146;28;42777;-82
2023/12/09 07:36:58;;;;;;;;;;;15.30;51.30;;;;;;5045813;28;44183;-89
2023/12/09 07:39:23;;;;;;;;;;;15.30;51.30;;;;;;5046439;28;42824;-90
2023/12/09 07:41:51;;;;;;;;;;;15.30;51.30;;;;;;5046156;28;42924;-89
2023/12/09 07:44:20;;;;;;;;;;;15.10;51.20;;;;;;5026757;28;43104;-88
2023/12/09 07:46:46;;;;;;;;;;;15.30;51.30;;;;;;5045074;28;44339;-82
2023/12/09 07:49:12;;;;;;;;;;;15.30;51.80;;;;;;5045193;28;42991;-89
2023/12/09 07:51:37;;;;;;;;;;;15.30;51.30;;;;;;5027094;28;45528;-82
2023/12/09 07:54:03;;;;;;;;;;;15.20;52.20;;;;;;5045251;28;43034;-87
2023/12/09 07:56:28;;;;;;;;;;;15.20;51.30;;;;;;5045893;28;43820;-86
2023/12/09 07:58:54;;;;;;;;;;;15.30;51.30;;;;;;5044984;28;42923;-82
2023/12/09 08:01:19;;;;;;;;;;;15.30;51.30;;;;;;5045502;28;43025;-89
2023/12/09 08:03:45;;;;;;;;;;;15.20;52.00;;;;;;5046159;28;42960;-85
2023/12/09 08:06:11;;;;;;;;;;;15.20;51.30;;;;;;5027295;28;45394;-92
2023/12/09 08:08:38;;;;;;;;;;;15.30;51.30;;;;;;5060842;28;42936;-81
2023/12/09 08:11:04;;;;;;;;;;;15.30;51.30;;;;;;5046183;28;42945;-86
2023/12/09 08:13:29;;;;;;;;;;;15.30;51.80;;;;;;5046155;28;43157;-82
2023/12/09 08:15:55;;;;;;;;;;;15.30;52.00;;;;;;5045205;28;42932;-85
2023/12/09 08:18:20;;;;;;;;;;;15.30;52.10;;;;;;5044853;28;42895;-92
2023/12/09 08:20:46;;;;;;;;;;;15.30;51.40;;;;;;5047247;28;43562;-87
2023/12/09 08:23:11;;;;;;;;;;;15.30;51.90;;;;;;5049951;28;43445;-93
2023/12/09 08:25:37;;;;;;;;;;;15.30;52.00;;;;;;5045877;28;43399;-82
2023/12/09 08:28:03;;;;;;;;;;;15.20;51.30;;;;;;5046260;28;42947;-92
2023/12/09 08:30:28;;;;;;;;;;;15.20;51.30;;;;;;5045940;28;42719;-91
2023/12/09 08:32:54;;;;;;;;;;;15.20;52.10;;;;;;5045882;28;43096;-92
2023/12/09 08:35:19;;;;;;;;;;;15.20;51.30;;;;;;5044948;28;42952;-82
2023/12/09 08:37:45;;;;;;;;;;;15.20;51.30;;;;;;5044085;28;43166;-81
2023/12/09 08:40:11;;;;;;;;;;;15.30;51.40;;;;;;5044893;28;42965;-83
2023/12/09 08:42:41;;;;;;;;;;;15.20;51.90;;;;;;5045419;28;42913;-91
2023/12/09 08:45:07;;;;;;;;;;;15.30;51.40;;;;;;5045158;28;42944;-82
2023/12/09 08:47:33;;;;;;;;;;;15.30;52.20;;;;;;5045266;28;42937;-92
2023/12/09 08:49:58;;;;;;;;;;;15.30;51.50;;;;;;5044827;28;42765;-80
2023/12/09 08:52:24;;;;;;;;;;;15.30;51.40;;;;;;5044597;28;42900;-83
2023/12/09 08:54:49;;;;;;;;;;;15.20;51.40;;;;;;5045205;28;42916;-85
2023/12/09 08:57:15;;;;;;;;;;;15.30;51.40;;;;;;5045127;28;42913;-86
2023/12/09 08:59:40;;;;;;;;;;;15.20;51.30;;;;;;5045425;28;43118;-82
2023/12/09 09:02:06;;;;;;;;;;;15.30;51.40;;;;;;5044519;28;43018;-83
2023/12/09 09:04:34;;;;;;;;;;;15.20;51.40;;;;;;5044084;28;43437;-86
2023/12/09 09:07:00;;;;;;;;;;;15.30;51.50;;;;;;5045200;28;42960;-81
2023/12/09 09:09:25;;;;;;;;;;;15.30;51.40;;;;;;5045274;28;43398;-87
2023/12/09 09:11:51;;;;;;;;;;;15.20;51.40;;;;;;5045093;28;43033;-91
2023/12/09 09:14:16;;;;;;;;;;;15.30;51.50;;;;;;5027133;28;44340;-82
2023/12/09 09:16:42;;;;;;;;;;;15.30;51.50;;;;;;5044883;28;42972;-91
2023/12/09 09:19:07;;;;;;;;;;;15.30;51.50;;;;;;5045080;28;43257;-81
2023/12/09 09:21:33;;;;;;;;;;;15.30;51.50;;;;;;5044269;28;42964;-81
2023/12/09 09:23:59;;;;;;;;;;;15.30;51.50;;;;;;5045042;28;42990;-91
2023/12/09 09:26:24;;;;;;;;;;;15.20;51.40;;;;;;5045040;28;43118;-89
2023/12/09 09:28:50;;;;;;;;;;;15.30;51.50;;;;;;5044734;28;43942;-82
2023/12/09 09:31:15;;;;;;;;;;;15.30;51.40;;;;;;5029098;28;42963;-84
2023/12/09 09:33:41;;;;;;;;;;;15.20;51.40;;;;;;5048534;28;43138;-83
2023/12/09 09:36:07;;;;;;;;;;;15.60;51.60;;;;;;5030578;28;43066;-81
2023/12/09 09:38:33;;;;;;;;;;;15.30;51.50;;;;;;5048458;28;43654;-85
2023/12/09 09:40:59;;;;;;;;;;;15.30;51.50;;;;;;5048504;28;43072;-83
2023/12/09 09:43:29;;;;;;;;;;;15.30;51.50;;;;;;5048387;28;42940;-92
2023/12/09 09:45:58;;;;;;;;;;;15.30;51.40;;;;;;5048513;28;42930;-82
2023/12/09 09:48:24;;;;;;;;;;;15.20;51.40;;;;;;5047111;28;43415;-81
2023/12/09 09:50:52;;;;;;;;;;;15.30;52.00;;;;;;5047753;28;42846;-89
2023/12/09 09:53:27;;;;;;;;;;;15.30;52.00;;;;;;5047982;28;43272;-82
2023/12/09 09:55:53;;;;;;;;;;;15.30;51.50;;;;;;5047415;28;42937;-88
2023/12/09 09:58:19;;;;;;;;;;;15.30;52.00;;;;;;5028851;28;43853;-84
2023/12/09 10:00:44;;;;;;;;;;;15.30;51.40;;;;;;5047321;28;42937;-88
2023/12/09 10:03:10;;;;;;;;;;;15.30;51.40;;;;;;5047943;28;42988;-81
2023/12/09 10:05:35;;;;;;;;;;;15.30;51.40;;;;;;5047499;28;42995;-81
2023/12/09 10:08:01;;;;;;;;;;;15.30;51.40;;;;;;5047449;28;43069;-82
2023/12/09 10:10:27;;;;;;;;;;;15.30;51.40;;;;;;5047947;28;43050;-81
2023/12/09 10:12:52;;;;;;;;;;;15.30;51.40;;;;;;5047240;28;43347;-81
2023/12/09 10:15:18;;;;;;;;;;;15.30;51.40;;;;;;5048004;28;42916;-86
2023/12/09 10:17:43;;;;;;;;;;;15.30;51.40;;;;;;5028973;28;45989;-88
2023/12/09 10:20:10;;;;;;;;;;;15.30;51.40;;;;;;5028701;28;43061;-81
2023/12/09 10:22:37;;;;;;;;;;;15.30;51.30;;;;;;5047510;28;42854;-88
2023/12/09 10:25:02;;;;;;;;;;;15.30;51.90;;;;;;5046926;28;42924;-81
2023/12/09 10:27:28;;;;;;;;;;;15.30;51.30;;;;;;5047231;28;43061;-90
2023/12/09 10:29:54;;;;;;;;;;;15.20;51.30;;;;;;5049494;28;42759;-91
2023/12/09 10:32:20;;;;;;;;;;;15.30;51.30;;;;;;5057568;28;42801;-84
2023/12/09 10:34:49;;;;;;;;;;;15.30;51.80;;;;;;5048148;28;42971;-82
2023/12/09 10:37:18;;;;;;;;;;;15.30;51.30;;;;;;5028868;28;45712;-85
2023/12/09 10:39:44;;;;;;;;;;;15.30;51.20;;;;;;5047797;28;42962;-87
2023/12/09 10:42:10;;;;;;;;;;;15.40;51.30;;;;;;5047206;28;42936;-81
2023/12/09 10:44:36;;;;;;;;;;;15.30;51.20;;;;;;5047191;28;42984;-83
2023/12/09 10:47:02;;;;;;;;;;;15.30;51.30;;;;;;5046880;28;43027;-92
2023/12/09 10:49:28;;;;;;;;;;;15.30;51.20;;;;;;5047328;28;43107;-81
2023/12/09 10:51:53;;;;;;;;;;;15.30;51.80;;;;;;5046725;28;43032;-82
2023/12/09 10:54:20;;;;;;;;;;;15.30;51.80;;;;;;5046837;28;42896;-90
2023/12/09 10:56:45;;;;;;;;;;;15.30;51.10;;;;;;5028349;28;44504;-93
2023/12/09 10:59:13;;;;;;;;;;;15.30;51.20;;;;;;5028745;28;42975;-83
2023/12/09 11:01:38;;;;;;;;;;;15.30;51.20;;;;;;5045874;28;43630;-93
2023/12/09 11:04:04;;;;;;;;;;;15.30;51.10;;;;;;5047044;28;43030;-91
2023/12/09 11:06:33;;;;;;;;;;;15.30;51.10;;;;;;5046030;28;43859;-82
2023/12/09 11:08:59;;;;;;;;;;;15.30;51.10;;;;;;5028002;28;43127;-92
2023/12/09 11:11:25;;;;;;;;;;;15.30;51.10;;;;;;5028129;28;44514;-81
2023/12/09 11:13:53;;;;;;;;;;;15.30;51.70;;;;;;5027775;28;43101;-84
2023/12/09 11:16:20;;;;;;;;;;;15.30;51.10;;;;;;5028648;28;44366;-82
2023/12/09 11:18:57;;;;;;;;;;;15.30;51.10;;;;;;5027877;28;43263;-83
2023/12/09 11:21:32;;;;;;;;;;;15.40;51.10;;;;;;5046285;28;43161;-81
2023/12/09 11:23:58;;;;;;;;;;;15.40;51.10;;;;;;5028137;28;43061;-85
2023/12/09 11:26:27;;;;;;;;;;;15.40;51.10;;;;;;5045997;28;42963;-86
2023/12/09 11:28:57;;;;;;;;;;;15.40;51.10;;;;;;5046104;28;42892;-82
2023/12/09 11:31:30;;;;;;;;;;;15.40;51.10;;;;;;5046502;28;43133;-82
2023/12/09 11:33:56;;;;;;;;;;;15.40;51.10;;;;;;5046409;28;43074;-85
2023/12/09 11:36:23;;;;;;;;;;;15.40;51.00;;;;;;5045078;28;43644;-90
2023/12/09 11:38:48;;;;;;;;;;;15.40;51.20;;;;;;5044960;28;42917;-90
2023/12/09 11:41:14;;;;;;;;;;;15.40;51.00;;;;;;5045845;28;43011;-83
2023/12/09 11:43:40;;;;;;;;;;;15.40;51.00;;;;;;5046164;28;42995;-84
2023/12/09 11:46:06;;;;;;;;;;;15.40;51.00;;;;;;5046232;28;43424;-85
2023/12/09 11:48:34;;;;;;;;;;;15.40;51.00;;;;;;5045113;28;42899;-87
2023/12/09 11:51:03;;;;;;;;;;;15.40;51.00;;;;;;5045173;28;43546;-84
2023/12/09 11:53:35;;;;;;;;;;;15.40;51.00;;;;;;5027182;28;43060;-80
2023/12/09 11:56:00;;;;;;;;;;;15.30;50.90;;;;;;5045506;28;43951;-88
2023/12/09 11:58:26;;;;;;;;;;;15.40;51.00;;;;;;5044492;28;43032;-88
2023/12/09 12:00:51;;;;;;;;;;;15.40;51.00;;;;;;5044493;28;42963;-85
2023/12/09 12:03:17;;;;;;;;;;;15.30;50.90;;;;;;5061402;28;43015;-82
2023/12/09 12:05:43;;;;;;;;;;;15.40;50.90;;;;;;5025975;28;44044;-82
2023/12/09 12:08:15;;;;;;;;;;;15.40;51.00;;;;;;5027414;28;43006;-82
2023/12/09 12:10:41;;;;;;;;;;;15.40;50.90;;;;;;5045774;28;43046;-88
2023/12/09 12:13:06;;;;;;;;;;;15.30;50.90;;;;;;5044510;28;43163;-82
2023/12/09 12:15:32;;;;;;;;;;;15.40;50.90;;;;;;5045396;28;43546;-84
2023/12/09 12:18:00;;;;;;;;;;;15.40;51.00;;;;;;5045267;28;43093;-81
2023/12/09 12:20:25;;;;;;;;;;;15.40;50.90;;;;;;5045237;28;43491;-82
2023/12/09 12:22:51;;;;;;;;;;;15.40;50.90;;;;;;5045992;28;43009;-87
2023/12/09 12:25:19;;;;;;;;;;;15.40;50.90;;;;;;5045889;28;42844;-86
2023/12/09 12:27:44;;;;;;;;;;;15.40;50.90;;;;;;5045440;28;42984;-83
2023/12/09 12:30:10;;;;;;;;;;;15.50;51.80;;;;;;5045218;28;43672;-88
2023/12/09 12:32:37;;;;;;;;;;;15.40;50.90;;;;;;5045975;28;42912;-81
2023/12/09 12:35:06;;;;;;;;;;;15.40;50.90;;;;;;5044761;28;42902;-87
2023/12/09 12:37:31;;;;;;;;;;;15.40;50.90;;;;;;5045288;28;42962;-83
2023/12/09 12:39:59;;;;;;;;;;;15.40;50.90;;;;;;5045652;28;63449;-90
2023/12/09 12:42:24;;;;;;;;;;;15.40;50.90;;;;;;5052704;28;43684;-83
2023/12/09 12:44:50;;;;;;;;;;;15.50;51.00;;;;;;5046211;28;42927;-86
2023/12/09 12:47:15;;;;;;;;;;;15.50;51.00;;;;;;5026714;28;43130;-92
2023/12/09 12:49:41;;;;;;;;;;;15.40;50.90;;;;;;5025771;28;43949;-81
2023/12/09 12:52:06;;;;;;;;;;;15.40;50.90;;;;;;5027194;28;43603;-82
2023/12/09 12:54:32;;;;;;;;;;;15.40;50.90;;;;;;5045092;28;43546;-82
2023/12/09 12:56:58;;;;;;;;;;;15.40;50.90;;;;;;5045171;28;43054;-82
2023/12/09 12:59:23;;;;;;;;;;;15.50;51.00;;;;;;5045325;28;42954;-83
2023/12/09 13:01:49;;;;;;;;;;;15.40;50.90;;;;;;5044319;28;43072;-82
2023/12/09 13:04:14;;;;;;;;;;;15.30;50.80;;;;;;5044657;28;43828;-83
2023/12/09 13:06:43;;;;;;;;;;;15.40;51.00;;;;;;5026770;28;43021;-93
2023/12/09 13:09:09;;;;;;;;;;;15.40;50.90;;;;;;5045145;28;42951;-89
2023/12/09 13:11:34;;;;;;;;;;;15.40;50.90;;;;;;5045083;28;42900;-82
2023/12/09 13:14:00;;;;;;;;;;;15.40;50.90;;;;;;5044884;28;43058;-82
2023/12/09 13:16:26;;;;;;;;;;;15.40;51.00;;;;;;5044908;28;42781;-82
2023/12/09 13:18:51;;;;;;;;;;;15.40;50.90;;;;;;5044867;28;43583;-85
2023/12/09 13:21:17;;;;;;;;;;;15.50;51.00;;;;;;5045436;28;42928;-82
2023/12/09 13:23:42;;;;;;;;;;;15.40;50.90;;;;;;5045222;28;42921;-88
2023/12/09 13:26:08;;;;;;;;;;;15.40;50.90;;;;;;5044785;28;42910;-81
2023/12/09 13:28:33;;;;;;;;;;;15.40;50.90;;;;;;5044997;28;43076;-85
2023/12/09 13:30:59;;;;;;;;;;;15.40;50.90;;;;;;5027073;28;43044;-82
2023/12/09 13:33:24;;;;;;;;;;;15.40;51.70;;;;;;5044195;28;43010;-84
2023/12/09 13:35:50;;;;;;;;;;;15.40;50.90;;;;;;5025973;28;42852;-81
2023/12/09 13:38:15;;;;;;;;;;;15.40;51.00;;;;;;5045046;28;42955;-92
2023/12/09 13:40:45;;;;;;;;;;;15.40;51.60;;;;;;5045143;28;42886;-83
2023/12/09 13:43:10;;;;;;;;;;;15.40;51.30;;;;;;5025337;28;44373;-81
2023/12/09 13:45:36;;;;;;;;;;;15.50;51.60;;;;;;5044662;28;43024;-82
2023/12/09 13:48:02;;;;;;;;;;;15.50;51.00;;;;;;5044023;28;42851;-83
2023/12/09 13:50:27;;;;;;;;;;;15.50;51.00;;;;;;5043839;28;42830;-82
2023/12/09 13:52:53;;;;;;;;;;;15.40;50.90;;;;;;5044373;28;43369;-82
2023/12/09 13:55:20;;;;;;;;;;;15.40;51.00;;;;;;5044357;28;42907;-86
2023/12/09 13:57:46;;;;;;;;;;;15.40;51.10;;;;;;5044194;28;42837;-82
2023/12/09 14:00:12;;;;;;;;;;;15.40;51.00;;;;;;5044734;28;43031;-86
2023/12/09 14:02:38;;;;;;;;;;;15.40;51.10;;;;;;5044723;28;43468;-87
2023/12/09 14:05:04;;;;;;;;;;;15.50;51.70;;;;;;5044382;28;43010;-88
2023/12/09 14:07:30;;;;;;;;;;;15.40;51.00;;;;;;5043094;28;43811;-91
2023/12/09 14:09:56;;;;;;;;;;;15.40;51.00;;;;;;5043973;28;42982;-82